createdAt,value
2019-03-20T16:01:06.518Z,40.23
2019-03-20T16:02:06.497Z,38.83
2019-03-20T16:03:06.489Z,38.41
2019-03-20T16:04:06.485Z,38.61
2019-03-20T16:05:06.518Z,38.71
2019-03-20T16:06:06.470Z,37.49
2019-03-20T16:07:06.464Z,37.51
2019-03-20T16:08:06.456Z,38.01
2019-03-20T16:09:06.449Z,37.81
2019-03-20T16:10:06.440Z,37.91
2019-03-20T16:11:07.066Z,37.99
2019-03-20T16:12:06.428Z,37.49
2019-03-20T16:13:34.152Z,37.19
2019-03-20T16:14:34.149Z,37.09
2019-03-20T16:15:34.142Z,37.09
2019-03-20T16:16:34.139Z,37.09
2019-03-20T16:17:34.128Z,37.29
2019-03-20T16:18:34.122Z,37.19
2019-03-20T16:19:34.115Z,37.17
2019-03-20T16:20:34.108Z,36.87
2019-03-20T16:21:34.127Z,36.77
2019-03-20T16:22:34.099Z,37.07
2019-03-20T16:23:34.093Z,36.67
2019-03-20T16:24:34.086Z,36.87
2019-03-20T16:25:34.084Z,36.87
2019-03-20T16:26:34.077Z,36.47
2019-03-20T16:27:34.069Z,36.67
2019-03-20T16:28:34.063Z,36.47
2019-03-20T16:29:34.057Z,36.87
2019-03-20T16:30:34.049Z,36.57
2019-03-20T16:31:34.045Z,36.57
2019-03-20T16:32:34.244Z,36.47
2019-03-20T16:33:34.031Z,36.77
2019-03-20T16:34:34.024Z,35.67
2019-03-20T16:35:34.042Z,35.47
2019-03-20T16:36:34.038Z,35.98
2019-03-20T16:37:34.028Z,35.77
2019-03-20T16:38:34.022Z,35.46
2019-03-20T16:39:34.020Z,36.15
2019-03-20T16:40:34.007Z,36.05
2019-03-20T16:41:34.003Z,35.96
2019-03-20T16:42:33.997Z,35.85
2019-03-20T16:43:33.988Z,35.66
2019-03-20T16:44:33.983Z,35.96
2019-03-20T16:45:33.977Z,36.15
2019-03-20T16:46:33.970Z,36.15
2019-03-20T16:47:33.964Z,36.26
2019-03-20T16:48:33.958Z,36.35
2019-03-20T16:49:33.951Z,36.15
2019-03-20T16:50:33.951Z,35.76
2019-03-20T16:51:33.935Z,35.85
2019-03-20T16:52:33.930Z,36.05
2019-03-20T16:53:33.925Z,35.55
2019-03-20T16:54:33.916Z,35.35
2019-03-20T16:55:33.910Z,35.55
2019-03-20T16:56:33.905Z,35.35
2019-03-20T16:57:33.899Z,35.76
2019-03-20T16:58:33.889Z,35.55
2019-03-20T16:59:33.882Z,35.35
2019-03-20T17:00:33.878Z,35.66
2019-03-20T17:01:33.870Z,35.76
2019-03-20T17:02:33.915Z,35.55
2019-03-20T17:03:33.856Z,35.55
2019-03-20T17:04:33.850Z,35.55
2019-03-20T17:05:33.842Z,35.55
2019-03-20T17:06:33.833Z,35.55
2019-03-20T17:07:33.828Z,35.55
2019-03-20T17:08:33.821Z,35.55
2019-03-20T17:09:33.817Z,35.96
2019-03-20T17:10:33.815Z,35.35
2019-03-20T17:11:38.263Z,35.55
2019-03-20T17:12:33.797Z,35.85
2019-03-20T17:13:33.791Z,35.46
2019-03-20T17:14:33.782Z,35.46
2019-03-20T17:15:33.778Z,35.46
2019-03-20T17:16:33.769Z,35.26
2019-03-20T17:17:33.762Z,35.26
2019-03-20T17:18:33.758Z,35.16
2019-03-20T17:19:33.751Z,35.26
2019-03-20T17:20:33.746Z,35.16
2019-03-20T17:21:34.139Z,35.05
2019-03-20T17:22:41.740Z,34.96
2019-03-20T17:24:01.401Z,34.96
2019-03-20T17:25:01.404Z,35.05
2019-03-20T17:26:01.393Z,35.35
2019-03-20T17:27:01.385Z,35.55
2019-03-20T17:28:01.380Z,34.94
2019-03-20T17:29:08.598Z,35.05
2019-03-20T17:30:29.094Z,35.05
2019-03-20T17:31:29.091Z,35.26
2019-03-20T17:32:29.083Z,34.86
2019-03-20T17:33:29.081Z,35.35
2019-03-20T17:34:30.647Z,35.26
2019-03-20T17:35:29.063Z,35.05
2019-03-20T17:36:29.058Z,35.46
2019-03-20T17:37:29.051Z,35.16
2019-03-20T17:38:29.046Z,34.86
2019-03-20T17:39:29.039Z,34.96
2019-03-20T17:40:29.033Z,35.35
2019-03-20T17:41:36.453Z,35.55
2019-03-20T17:42:56.749Z,35.05
2019-03-20T17:43:56.744Z,35.26
2019-03-20T17:44:56.736Z,35.16
2019-03-20T17:45:56.731Z,35.26
2019-03-20T17:46:56.723Z,35.16
2019-03-20T17:47:56.717Z,34.86
2019-03-20T17:48:56.710Z,34.86
2019-03-20T17:49:56.705Z,35.05
2019-03-20T17:50:56.698Z,35.16
2019-03-20T17:51:56.690Z,35.05
2019-03-20T17:52:56.685Z,35.26
2019-03-20T17:53:56.675Z,35.16
2019-03-20T17:54:56.669Z,35.26
2019-03-20T17:55:56.664Z,35.37
2019-03-20T17:56:56.656Z,35.05
2019-03-20T17:57:56.650Z,35.35
2019-03-20T17:58:56.643Z,35.26
2019-03-20T17:59:56.636Z,34.56
2019-03-20T18:00:56.629Z,34.97
2019-03-20T18:01:56.621Z,35.35
2019-03-20T18:02:56.620Z,35.26
2019-03-20T18:03:56.610Z,35.35
2019-03-20T18:04:56.603Z,35.26
2019-03-20T18:05:56.603Z,34.96
2019-03-20T18:06:56.592Z,35.35
2019-03-20T18:07:56.586Z,34.56
2019-03-20T18:08:56.585Z,34.46
2019-03-20T18:09:56.574Z,35.16
2019-03-20T18:10:56.563Z,34.56
2019-03-20T18:11:56.561Z,35.26
2019-03-20T18:12:56.555Z,34.56
2019-03-20T18:13:56.547Z,35.26
2019-03-20T18:14:56.537Z,35.05
2019-03-20T18:15:56.532Z,35.16
2019-03-20T18:16:56.529Z,35.16
2019-03-20T18:17:56.522Z,35.16
2019-03-20T18:18:56.514Z,35.26
2019-03-20T18:19:56.509Z,35.16
2019-03-20T18:20:56.503Z,34.87
2019-03-20T18:21:56.503Z,35.26
2019-03-20T18:22:56.488Z,35.26
2019-03-20T18:23:56.481Z,35.05
2019-03-20T18:24:56.477Z,35.26
2019-03-20T18:25:56.496Z,35.05
2019-03-20T18:26:56.487Z,34.96
2019-03-20T18:27:56.499Z,35.26
2019-03-20T18:28:56.488Z,34.66
2019-03-20T18:29:56.481Z,34.75
2019-03-20T18:30:56.477Z,35.16
2019-03-20T18:31:56.470Z,35.27
2019-03-20T18:32:56.462Z,34.86
2019-03-20T18:33:56.455Z,34.66
2019-03-20T18:34:56.449Z,35.16
2019-03-20T18:35:56.444Z,34.77
2019-03-20T18:36:56.437Z,35.76
2019-03-20T18:37:56.434Z,35.16
2019-03-20T18:38:56.426Z,34.66
2019-03-20T18:39:56.418Z,34.86
2019-03-20T18:40:56.413Z,34.86
2019-03-20T18:41:57.995Z,34.75
2019-03-20T18:42:56.397Z,34.56
2019-03-20T18:43:56.389Z,34.75
2019-03-20T18:44:56.384Z,34.77
2019-03-20T18:45:56.377Z,34.66
2019-03-20T18:46:56.371Z,34.68
2019-03-20T18:47:56.370Z,34.97
2019-03-20T18:48:56.358Z,34.77
2019-03-20T18:49:56.357Z,34.77
2019-03-20T18:50:56.344Z,34.87
2019-03-20T18:51:56.338Z,35.05
2019-03-20T18:52:56.330Z,35.26
2019-03-20T18:53:56.327Z,34.75
2019-03-20T18:54:56.323Z,34.77
2019-03-20T18:55:56.312Z,34.87
2019-03-20T18:56:56.306Z,34.68
2019-03-20T18:57:56.302Z,35.27
2019-03-20T18:58:56.294Z,35.27
2019-03-20T18:59:56.285Z,34.57
2019-03-20T19:00:56.280Z,34.57
2019-03-20T19:01:56.277Z,34.57
2019-03-20T19:02:56.266Z,35.26
2019-03-20T19:03:56.259Z,34.66
2019-03-20T19:04:56.255Z,34.57
2019-03-20T19:05:56.250Z,34.75
2019-03-20T19:06:56.242Z,34.77
2019-03-20T19:07:56.247Z,34.68
2019-03-20T19:08:56.229Z,35.27
2019-03-20T19:09:56.223Z,35.26
2019-03-20T19:10:56.220Z,34.86
2019-03-20T19:11:56.211Z,34.75
2019-03-20T19:12:56.204Z,34.87
2019-03-20T19:13:56.202Z,35.27
2019-03-20T19:14:56.193Z,34.87
2019-03-20T19:15:56.194Z,34.97
2019-03-20T19:16:56.181Z,34.57
2019-03-20T19:17:56.176Z,35.27
2019-03-20T19:18:56.167Z,34.87
2019-03-20T19:19:56.160Z,35.18
2019-03-20T19:20:56.157Z,35.27
2019-03-20T19:21:56.145Z,35.07
2019-03-20T19:22:56.148Z,34.87
2019-03-20T19:23:56.150Z,35.27
2019-03-20T19:24:56.138Z,34.97
2019-03-20T19:25:56.147Z,34.77
2019-03-20T19:26:56.135Z,34.38
2019-03-20T19:27:56.136Z,34.77
2019-03-20T19:28:56.122Z,35.27
2019-03-20T19:29:56.117Z,34.57
2019-03-20T19:30:56.116Z,35.27
2019-03-20T19:31:56.104Z,34.68
2019-03-20T19:32:56.098Z,34.87
2019-03-20T19:33:56.090Z,34.68
2019-03-20T19:34:56.085Z,34.77
2019-03-20T19:35:56.078Z,34.77
2019-03-20T19:36:56.073Z,34.87
2019-03-20T19:37:56.066Z,35.18
2019-03-20T19:38:56.060Z,34.57
2019-03-20T19:39:56.054Z,34.77
2019-03-20T19:40:56.046Z,34.68
2019-03-20T19:41:56.043Z,34.87
2019-03-20T19:42:56.036Z,34.57
2019-03-20T19:43:56.028Z,34.87
2019-03-20T19:44:56.022Z,34.68
2019-03-20T19:45:56.037Z,34.68
2019-03-20T19:46:56.032Z,34.68
2019-03-20T19:47:56.025Z,34.77
2019-03-20T19:48:56.023Z,34.57
2019-03-20T19:49:56.018Z,34.38
2019-03-20T19:50:56.010Z,34.77
2019-03-20T19:51:56.004Z,34.68
2019-03-20T19:52:55.997Z,34.68
2019-03-20T19:53:55.996Z,34.87
2019-03-20T19:54:55.985Z,34.87
2019-03-20T19:55:55.976Z,34.57
2019-03-20T19:56:55.973Z,34.59
2019-03-20T19:57:55.964Z,35.27
2019-03-20T19:58:55.958Z,35.29
2019-03-20T19:59:55.950Z,34.77
2019-03-20T20:00:55.943Z,34.59
2019-03-20T20:01:55.939Z,34.79
2019-03-20T20:02:55.940Z,34.59
2019-03-20T20:03:55.926Z,34.57
2019-03-20T20:04:55.918Z,34.68
2019-03-20T20:05:55.912Z,34.89
2019-03-20T20:06:55.906Z,34.79
2019-03-20T20:07:55.901Z,34.87
2019-03-20T20:08:55.895Z,34.68
2019-03-20T20:09:55.886Z,35.27
2019-03-20T20:10:55.880Z,34.79
2019-03-20T20:11:55.870Z,34.79
2019-03-20T20:12:55.865Z,35.19
2019-03-20T20:13:55.857Z,35.19
2019-03-20T20:14:55.852Z,34.79
2019-03-20T20:15:55.847Z,35.19
2019-03-20T20:16:55.839Z,35.29
2019-03-20T20:17:55.832Z,34.89
2019-03-20T20:18:55.827Z,34.59
2019-03-20T20:19:55.823Z,34.79
2019-03-20T20:20:55.812Z,34.59
2019-03-20T20:21:55.804Z,34.79
2019-03-20T20:22:55.798Z,35.79
2019-03-20T20:23:55.814Z,35.19
2019-03-20T20:24:55.806Z,34.89
2019-03-20T20:25:55.802Z,34.89
2019-03-20T20:26:55.796Z,34.79
2019-03-20T20:27:55.788Z,35.19
2019-03-20T20:28:55.781Z,35.29
2019-03-20T20:29:55.799Z,34.89
2019-03-20T20:30:55.792Z,34.99
2019-03-20T20:31:55.784Z,35.19
2019-03-20T20:32:55.778Z,34.89
2019-03-20T20:33:55.769Z,35.19
2019-03-20T20:34:55.763Z,34.89
2019-03-20T20:35:55.757Z,35.09
2019-03-20T20:36:55.752Z,34.59
2019-03-20T20:37:55.744Z,35.29
2019-03-20T20:38:55.739Z,34.59
2019-03-20T20:39:55.733Z,34.69
2019-03-20T20:40:55.724Z,34.59
2019-03-20T20:41:55.718Z,34.49
2019-03-20T20:42:55.710Z,35.00
2019-03-20T20:43:55.704Z,34.61
2019-03-20T20:44:55.701Z,35.39
2019-03-20T20:45:55.694Z,35.41
2019-03-20T20:46:55.687Z,34.89
2019-03-20T20:47:55.680Z,35.09
2019-03-20T20:48:55.670Z,35.29
2019-03-20T20:49:55.663Z,35.11
2019-03-20T20:50:55.679Z,35.09
2019-03-20T20:51:55.675Z,35.21
2019-03-20T20:52:55.673Z,35.11
2019-03-20T20:53:55.664Z,35.11
2019-03-20T20:54:55.655Z,35.30
2019-03-20T20:55:55.657Z,34.91
2019-03-20T20:56:55.646Z,35.11
2019-03-20T20:57:55.638Z,35.61
2019-03-20T20:58:55.629Z,35.41
2019-03-20T20:59:55.624Z,35.00
2019-03-20T21:00:55.620Z,34.89
2019-03-20T21:01:55.613Z,35.61
2019-03-20T21:02:55.606Z,35.61
2019-03-20T21:03:55.602Z,35.21
2019-03-20T21:04:55.598Z,35.11
2019-03-20T21:05:55.587Z,35.00
2019-03-20T21:06:55.580Z,35.11
2019-03-20T21:07:55.574Z,35.11
2019-03-20T21:08:55.565Z,35.11
2019-03-20T21:09:55.559Z,35.11
2019-03-20T21:10:55.554Z,35.11
2019-03-20T21:11:55.546Z,35.30
2019-03-20T21:12:57.352Z,35.00
2019-03-20T21:13:55.533Z,35.30
2019-03-20T21:14:55.527Z,35.21
2019-03-20T21:15:55.521Z,35.11
2019-03-20T21:16:55.512Z,35.11
2019-03-20T21:17:55.506Z,35.12
2019-03-20T21:18:55.498Z,35.02
2019-03-20T21:19:55.490Z,35.21
2019-03-20T21:20:55.489Z,35.00
2019-03-20T21:21:55.501Z,35.22
2019-03-20T21:22:55.493Z,35.21
2019-03-20T21:23:55.487Z,35.00
2019-03-20T21:24:55.483Z,35.02
2019-03-20T21:25:55.478Z,35.62
2019-03-20T21:26:55.529Z,35.43
2019-03-20T21:27:55.463Z,35.72
2019-03-20T21:28:55.456Z,35.72
2019-03-20T21:29:55.449Z,35.72
2019-03-20T21:30:55.440Z,35.51
2019-03-20T21:31:55.434Z,35.62
2019-03-20T21:32:55.429Z,35.82
2019-03-20T21:33:55.422Z,35.62
2019-03-20T21:34:55.415Z,35.72
2019-03-20T21:35:55.419Z,35.62
2019-03-20T21:36:55.404Z,35.62
2019-03-20T21:37:55.397Z,35.62
2019-03-20T21:38:55.391Z,35.62
2019-03-20T21:39:55.384Z,35.82
2019-03-20T21:40:55.378Z,35.82
2019-03-20T21:41:55.374Z,35.82
2019-03-20T21:43:06.324Z,35.72
2019-03-20T21:44:23.134Z,35.62
2019-03-20T21:45:23.132Z,35.62
2019-03-20T21:46:23.129Z,35.52
2019-03-20T21:47:23.117Z,35.82
2019-03-20T21:48:23.110Z,35.43
2019-03-20T21:49:23.104Z,35.64
2019-03-20T21:50:23.094Z,35.52
2019-03-20T21:51:23.091Z,35.74
2019-03-20T21:52:23.083Z,35.54
2019-03-20T21:53:23.076Z,35.82
2019-03-20T21:54:23.071Z,35.84
2019-03-20T21:55:23.063Z,35.52
2019-03-20T21:56:23.057Z,35.74
2019-03-20T21:57:23.051Z,35.44
2019-03-20T21:58:23.045Z,35.44
2019-03-20T21:59:23.036Z,35.64
2019-03-20T22:00:23.031Z,35.34
2019-03-20T22:01:23.025Z,35.44
2019-03-20T22:02:23.015Z,35.34
2019-03-20T22:03:23.010Z,35.24
2019-03-20T22:04:23.005Z,35.94
2019-03-20T22:05:23.486Z,35.64
2019-03-20T22:06:22.995Z,35.54
2019-03-20T22:07:22.986Z,35.74
2019-03-20T22:08:22.979Z,36.34
2019-03-20T22:09:22.992Z,35.84
2019-03-20T22:10:23.013Z,36.04
2019-03-20T22:11:22.959Z,35.64
2019-03-20T22:12:22.950Z,35.94
2019-03-20T22:13:22.945Z,35.74
2019-03-20T22:14:22.938Z,35.64
2019-03-20T22:15:22.929Z,35.44
2019-03-20T22:16:22.928Z,35.74
2019-03-20T22:17:22.916Z,35.94
2019-03-20T22:18:22.909Z,36.14
2019-03-20T22:19:22.905Z,35.34
2019-03-20T22:20:22.898Z,36.24
2019-03-20T22:21:22.940Z,35.94
2019-03-20T22:22:22.913Z,35.64
2019-03-20T22:23:22.876Z,36.14
2019-03-20T22:24:22.871Z,35.94
2019-03-20T22:25:22.869Z,35.44
2019-03-20T22:26:22.861Z,35.84
2019-03-20T22:27:22.855Z,36.24
2019-03-20T22:28:22.847Z,36.14
2019-03-20T22:29:22.863Z,36.44
2019-03-20T22:30:22.859Z,36.44
2019-03-20T22:31:22.851Z,35.94
2019-03-20T22:32:22.893Z,36.34
2019-03-20T22:33:22.837Z,35.86
2019-03-20T22:34:22.851Z,35.34
2019-03-20T22:35:22.843Z,36.66
2019-03-20T22:36:22.842Z,36.16
2019-03-20T22:37:22.833Z,35.44
2019-03-20T22:38:22.827Z,36.46
2019-03-20T22:39:22.820Z,36.24
2019-03-20T22:40:22.815Z,35.76
2019-03-20T22:41:22.808Z,36.16
2019-03-20T22:42:22.802Z,36.36
2019-03-20T22:43:30.033Z,36.24
2019-03-20T22:44:50.511Z,36.14
2019-03-20T22:45:50.509Z,35.94
2019-03-20T22:46:50.502Z,36.14
2019-03-20T22:47:50.497Z,36.24
2019-03-20T22:48:50.489Z,36.46
2019-03-20T22:49:50.480Z,36.24
2019-03-20T22:50:50.473Z,35.84
2019-03-20T22:51:50.465Z,36.24
2019-03-20T22:52:50.456Z,36.24
2019-03-20T22:53:50.451Z,36.16
2019-03-20T22:54:50.442Z,36.26
2019-03-20T22:55:50.437Z,35.64
2019-03-20T22:56:50.431Z,35.84
2019-03-20T22:57:50.423Z,36.14
2019-03-20T22:58:50.416Z,36.24
2019-03-20T22:59:50.460Z,36.44
2019-03-20T23:00:50.400Z,35.34
2019-03-20T23:01:50.396Z,36.26
2019-03-20T23:02:50.387Z,36.46
2019-03-20T23:03:50.382Z,36.26
2019-03-20T23:04:50.375Z,36.46
2019-03-20T23:05:50.393Z,35.36
2019-03-20T23:06:50.390Z,35.86
2019-03-20T23:07:50.379Z,35.86
2019-03-20T23:08:50.370Z,35.64
2019-03-20T23:09:50.361Z,35.86
2019-03-20T23:10:50.356Z,35.86
2019-03-20T23:11:50.347Z,36.04
2019-03-20T23:12:50.341Z,35.66
2019-03-20T23:13:50.334Z,35.36
2019-03-20T23:14:50.330Z,36.56
2019-03-20T23:15:50.322Z,36.16
2019-03-20T23:16:50.313Z,36.16
2019-03-20T23:17:50.310Z,36.56
2019-03-20T23:18:50.299Z,36.16
2019-03-20T23:19:50.316Z,36.16
2019-03-20T23:20:50.310Z,35.84
2019-03-20T23:21:50.304Z,35.76
2019-03-20T23:22:50.297Z,35.94
2019-03-20T23:23:50.291Z,35.64
2019-03-20T23:24:50.283Z,35.96
2019-03-20T23:25:50.277Z,36.46
2019-03-20T23:26:50.272Z,35.96
2019-03-20T23:27:50.264Z,35.46
2019-03-20T23:28:50.254Z,35.96
2019-03-20T23:29:50.247Z,35.86
2019-03-20T23:30:50.242Z,35.66
2019-03-20T23:31:50.235Z,36.16
2019-03-20T23:32:50.229Z,35.96
2019-03-20T23:33:50.223Z,36.36
2019-03-20T23:34:50.213Z,35.76
2019-03-20T23:35:50.207Z,36.26
2019-03-20T23:36:50.202Z,36.16
2019-03-20T23:37:50.195Z,35.94
2019-03-20T23:38:50.187Z,35.86
2019-03-20T23:39:50.178Z,35.76
2019-03-20T23:40:50.173Z,35.55
2019-03-20T23:41:50.168Z,36.26
2019-03-20T23:42:50.165Z,35.66
2019-03-20T23:43:53.129Z,35.66
2019-03-20T23:44:50.150Z,35.76
2019-03-20T23:45:50.143Z,35.76
2019-03-20T23:46:50.138Z,35.66
2019-03-20T23:47:50.130Z,35.36
2019-03-20T23:48:50.123Z,35.76
2019-03-20T23:49:50.115Z,35.55
2019-03-20T23:50:50.108Z,35.96
2019-03-20T23:51:50.104Z,35.76
2019-03-20T23:52:50.097Z,35.36
2019-03-20T23:53:50.090Z,35.55
2019-03-20T23:54:50.085Z,35.76
2019-03-20T23:55:50.074Z,35.66
2019-03-20T23:56:50.070Z,35.46
2019-03-20T23:57:50.065Z,35.46
2019-03-20T23:58:50.056Z,35.86
2019-03-20T23:59:50.051Z,36.06
